Time;durP1;ratioP1;P1;durP2;ratioP2;P2;SDS_P1;SDS_P2;PMS_P1;PMS_P2;Temp;Humidity;BMP_temperature;BMP_pressure;BME280_temperature;BME280_humidity;BME280_pressure;Samples;Min_cycle;Max_cycle;Signal;HPM_P1;HPM_P2
2021/06/22 00:00:33;;;;;;;;;;;19.10;49.30;;;;;;4951058;28;75923;-68
2021/06/22 00:02:58;;;;;;;;;;;19.10;49.40;;;;;;4952561;28;74407;-66
2021/06/22 00:05:24;;;;;;;;;;;19.10;49.50;;;;;;4950527;28;75568;-66
2021/06/22 00:07:51;;;;;;;;;;;19.10;49.80;;;;;;4950101;28;76374;-67
2021/06/22 00:10:18;;;;;;;;;;;19.00;49.50;;;;;;4951981;28;75131;-66
2021/06/22 00:12:43;;;;;;;;;;;19.00;49.60;;;;;;4950249;28;75641;-68
2021/06/22 00:15:11;;;;;;;;;;;19.00;49.70;;;;;;4950247;28;75680;-67
2021/06/22 00:17:36;;;;;;;;;;;19.00;49.70;;;;;;4950605;28;76921;-67
2021/06/22 00:20:03;;;;;;;;;;;19.00;50.20;;;;;;4952019;28;74994;-70
2021/06/22 00:22:28;;;;;;;;;;;18.90;50.00;;;;;;4952004;28;75052;-74
2021/06/22 00:24:54;;;;;;;;;;;18.90;50.30;;;;;;4951742;28;74601;-69
2021/06/22 00:27:20;;;;;;;;;;;18.90;50.20;;;;;;4952069;28;75291;-67
2021/06/22 00:29:49;;;;;;;;;;;18.90;50.20;;;;;;4950443;28;75502;-69
2021/06/22 00:32:15;;;;;;;;;;;18.90;50.50;;;;;;4951857;28;74632;-68
2021/06/22 00:34:40;;;;;;;;;;;18.90;50.40;;;;;;4951732;28;75048;-68
2021/06/22 00:37:06;;;;;;;;;;;18.90;50.50;;;;;;4950102;28;76457;-67
2021/06/22 00:39:31;;;;;;;;;;;18.90;50.60;;;;;;4952028;28;74377;-67
2021/06/22 00:41:57;;;;;;;;;;;18.90;50.50;;;;;;4951658;28;74502;-65
2021/06/22 00:44:23;;;;;;;;;;;18.80;50.50;;;;;;4952296;28;74384;-67
2021/06/22 00:46:48;;;;;;;;;;;18.80;50.60;;;;;;4951734;28;75027;-69
2021/06/22 00:49:14;;;;;;;;;;;18.80;50.80;;;;;;4950069;28;76719;-66
2021/06/22 00:51:42;;;;;;;;;;;18.80;50.80;;;;;;4950765;28;75763;-68
2021/06/22 00:54:08;;;;;;;;;;;18.80;50.60;;;;;;4951299;28;75764;-67
2021/06/22 00:56:34;;;;;;;;;;;18.70;50.70;;;;;;4951404;28;75090;-70
2021/06/22 00:58:59;;;;;;;;;;;18.80;50.90;;;;;;4951333;28;75359;-67
2021/06/22 01:01:25;;;;;;;;;;;18.70;50.90;;;;;;4949799;28;77435;-67
2021/06/22 01:03:51;;;;;;;;;;;18.70;51.10;;;;;;4951747;28;75624;-66
2021/06/22 01:06:16;;;;;;;;;;;18.60;51.10;;;;;;4949651;28;77089;-65
2021/06/22 01:08:42;;;;;;;;;;;18.60;51.40;;;;;;4951352;28;75129;-67
2021/06/22 01:11:08;;;;;;;;;;;18.60;51.40;;;;;;4951550;28;74382;-69
2021/06/22 01:13:33;;;;;;;;;;;18.60;51.40;;;;;;4951486;28;75084;-74
2021/06/22 01:15:59;;;;;;;;;;;18.60;51.50;;;;;;4949173;28;75197;-72
2021/06/22 01:18:24;;;;;;;;;;;18.50;51.70;;;;;;4949768;28;76322;-75
2021/06/22 01:20:55;;;;;;;;;;;18.50;51.70;;;;;;4950327;28;75399;-67
2021/06/22 01:23:20;;;;;;;;;;;18.50;51.90;;;;;;4949650;28;75999;-66
2021/06/22 01:25:46;;;;;;;;;;;18.40;51.90;;;;;;4951250;28;75261;-73
2021/06/22 01:28:11;;;;;;;;;;;18.40;51.80;;;;;;4949746;28;76676;-69
2021/06/22 01:30:37;;;;;;;;;;;18.40;52.00;;;;;;4951530;28;75417;-69
2021/06/22 01:33:05;;;;;;;;;;;18.40;52.00;;;;;;4949858;28;77305;-68
2021/06/22 01:35:30;;;;;;;;;;;18.40;53.20;;;;;;4950729;28;74996;-68
2021/06/22 01:38:00;;;;;;;;;;;18.40;53.80;;;;;;4951013;28;75866;-68
2021/06/22 01:40:26;;;;;;;;;;;18.40;53.80;;;;;;4950748;28;75129;-69
2021/06/22 01:42:56;;;;;;;;;;;18.40;53.80;;;;;;4949366;28;76285;-66
2021/06/22 01:45:21;;;;;;;;;;;18.40;53.90;;;;;;4950713;28;75246;-68
2021/06/22 01:47:47;;;;;;;;;;;18.40;53.70;;;;;;4950772;28;75150;-68
2021/06/22 01:50:15;;;;;;;;;;;18.40;53.90;;;;;;4951408;28;74397;-73
2021/06/22 01:52:41;;;;;;;;;;;18.40;53.50;;;;;;4950951;28;74867;-68
2021/06/22 01:55:48;;;;;;;;;;;18.40;53.20;;;;;;4949135;28;74905;-68
2021/06/22 01:57:58;;;;;;;;;;;18.40;53.00;;;;;;4949553;28;75177;-67
2021/06/22 02:00:23;;;;;;;;;;;18.40;53.00;;;;;;4953371;28;77120;-69
2021/06/22 02:02:49;;;;;;;;;;;18.40;52.90;;;;;;4948874;28;75439;-68
2021/06/22 02:05:15;;;;;;;;;;;18.40;53.00;;;;;;4949434;28;75978;-67
2021/06/22 02:07:41;;;;;;;;;;;18.50;53.20;;;;;;4948770;28;77345;-67
2021/06/22 02:10:08;;;;;;;;;;;18.60;53.00;;;;;;4950625;28;75029;-77
2021/06/22 02:12:33;;;;;;;;;;;18.60;53.20;;;;;;4950628;28;75033;-76
2021/06/22 02:14:59;;;;;;;;;;;18.70;53.60;;;;;;4950118;28;75822;-77
2021/06/22 02:17:25;;;;;;;;;;;18.70;53.50;;;;;;4949030;28;77129;-74
2021/06/22 02:19:50;;;;;;;;;;;18.70;53.80;;;;;;4950383;28;75091;-73
2021/06/22 02:22:16;;;;;;;;;;;18.70;53.70;;;;;;4949142;28;77255;-71
2021/06/22 02:24:42;;;;;;;;;;;18.80;53.40;;;;;;4948496;28;75060;-72
2021/06/22 02:27:07;;;;;;;;;;;18.80;53.10;;;;;;4950069;28;75153;-71
2021/06/22 02:29:33;;;;;;;;;;;18.80;53.40;;;;;;4948677;28;75822;-68
2021/06/22 02:31:59;;;;;;;;;;;18.80;53.20;;;;;;4950254;28;74490;-69
2021/06/22 02:34:24;;;;;;;;;;;18.90;53.20;;;;;;4948865;28;75713;-71
2021/06/22 02:36:50;;;;;;;;;;;18.90;53.40;;;;;;4950298;28;74587;-75
2021/06/22 02:39:16;;;;;;;;;;;18.90;53.20;;;;;;4948543;28;74527;-74
2021/06/22 02:41:41;;;;;;;;;;;18.90;53.20;;;;;;4948645;28;77404;-74
2021/06/22 02:44:07;;;;;;;;;;;18.90;53.20;;;;;;4950518;28;74537;-68
2021/06/22 02:46:32;;;;;;;;;;;19.00;53.40;;;;;;4948526;28;74870;-78
2021/06/22 02:48:58;;;;;;;;;;;18.90;53.50;;;;;;4949837;28;75249;-76
2021/06/22 02:51:23;;;;;;;;;;;18.90;53.50;;;;;;4948577;28;76507;-76
2021/06/22 02:53:49;;;;;;;;;;;19.00;53.50;;;;;;4949930;28;74436;-76
2021/06/22 02:56:15;;;;;;;;;;;18.90;53.60;;;;;;4948391;28;74694;-71
2021/06/22 02:58:41;;;;;;;;;;;18.90;53.10;;;;;;4948397;28;74565;-78
2021/06/22 03:01:06;;;;;;;;;;;19.00;52.90;;;;;;4950164;28;74533;-74
2021/06/22 03:03:32;;;;;;;;;;;19.00;52.70;;;;;;4949888;28;74988;-74
2021/06/22 03:05:57;;;;;;;;;;;19.00;52.80;;;;;;4949568;28;75024;-73
2021/06/22 03:08:23;;;;;;;;;;;19.00;52.50;;;;;;4949692;28;75848;-72
2021/06/22 03:10:49;;;;;;;;;;;19.00;52.70;;;;;;4949369;28;75186;-73
2021/06/22 03:13:14;;;;;;;;;;;19.00;53.70;;;;;;4948352;28;74543;-71
2021/06/22 03:15:40;;;;;;;;;;;19.00;54.10;;;;;;4950816;28;75182;-68
2021/06/22 03:18:05;;;;;;;;;;;19.00;54.20;;;;;;4951208;28;76396;-74
2021/06/22 03:20:31;;;;;;;;;;;18.90;54.70;;;;;;4953003;28;75026;-69
2021/06/22 03:22:57;;;;;;;;;;;19.00;54.90;;;;;;4952416;28;75652;-70
2021/06/22 03:25:22;;;;;;;;;;;18.90;54.00;;;;;;4952556;28;74588;-73
2021/06/22 03:27:48;;;;;;;;;;;18.90;53.60;;;;;;4951200;28;75740;-70
2021/06/22 03:30:14;;;;;;;;;;;18.90;53.50;;;;;;4952648;28;75123;-71
2021/06/22 03:32:43;;;;;;;;;;;19.00;53.40;;;;;;4951110;28;74729;-67
2021/06/22 03:35:09;;;;;;;;;;;19.00;53.80;;;;;;4951109;28;76585;-74
2021/06/22 03:37:35;;;;;;;;;;;19.00;54.90;;;;;;4950963;28;76272;-73
2021/06/22 03:40:05;;;;;;;;;;;18.90;54.70;;;;;;4950481;28;76178;-76
2021/06/22 03:42:31;;;;;;;;;;;18.90;54.40;;;;;;4952478;28;74929;-70
2021/06/22 03:44:56;;;;;;;;;;;19.00;54.10;;;;;;4952838;28;74530;-74
2021/06/22 03:47:22;;;;;;;;;;;18.90;53.60;;;;;;4950778;28;74698;-73
2021/06/22 03:49:48;;;;;;;;;;;18.90;53.70;;;;;;4952399;28;75193;-73
2021/06/22 03:52:13;;;;;;;;;;;19.00;54.30;;;;;;4952345;28;75291;-76
2021/06/22 03:54:39;;;;;;;;;;;19.00;54.60;;;;;;4952269;28;74437;-76
2021/06/22 03:57:05;;;;;;;;;;;19.00;54.10;;;;;;4950428;28;77151;-76
2021/06/22 03:59:31;;;;;;;;;;;18.90;54.20;;;;;;4955022;28;75114;-79
2021/06/22 04:01:56;;;;;;;;;;;19.00;55.00;;;;;;4952391;28;75323;-79
2021/06/22 04:04:22;;;;;;;;;;;19.00;55.00;;;;;;4952330;28;75236;-79
2021/06/22 04:06:47;;;;;;;;;;;19.00;54.60;;;;;;4951045;28;75212;-79
2021/06/22 04:09:13;;;;;;;;;;;19.00;54.60;;;;;;4952361;28;74512;-74
2021/06/22 04:11:39;;;;;;;;;;;18.90;54.10;;;;;;4950716;28;78210;-74
2021/06/22 04:14:04;;;;;;;;;;;19.00;54.10;;;;;;4952905;28;75141;-67
2021/06/22 04:16:30;;;;;;;;;;;18.90;54.00;;;;;;4950851;28;77024;-69
2021/06/22 04:18:55;;;;;;;;;;;18.90;53.80;;;;;;4950495;28;76410;-70
2021/06/22 04:21:21;;;;;;;;;;;18.90;53.60;;;;;;4952053;28;75060;-71
2021/06/22 04:23:47;;;;;;;;;;;18.90;53.60;;;;;;4951884;28;75316;-72
2021/06/22 04:26:12;;;;;;;;;;;18.90;53.50;;;;;;4949657;28;76657;-69
2021/06/22 04:28:38;;;;;;;;;;;18.90;53.50;;;;;;4950288;28;74589;-72
2021/06/22 04:31:03;;;;;;;;;;;18.90;53.30;;;;;;4950468;28;75869;-78
2021/06/22 04:33:29;;;;;;;;;;;18.90;53.50;;;;;;4951809;28;75164;-68
2021/06/22 04:35:55;;;;;;;;;;;18.90;53.60;;;;;;4952093;28;75158;-72
2021/06/22 04:38:20;;;;;;;;;;;18.90;54.10;;;;;;4950476;28;75212;-72
2021/06/22 04:40:46;;;;;;;;;;;18.90;54.00;;;;;;4950352;28;75444;-76
2021/06/22 04:43:12;;;;;;;;;;;19.00;53.80;;;;;;4951927;28;74500;-71
2021/06/22 04:45:37;;;;;;;;;;;18.90;53.70;;;;;;4951855;28;75198;-73
2021/06/22 04:48:03;;;;;;;;;;;19.00;53.80;;;;;;4951729;28;75669;-70
2021/06/22 04:50:29;;;;;;;;;;;19.00;53.40;;;;;;4950392;28;77488;-71
2021/06/22 04:52:55;;;;;;;;;;;19.00;53.50;;;;;;4952601;28;74558;-68
2021/06/22 04:55:25;;;;;;;;;;;19.00;53.90;;;;;;4949907;28;78055;-72
2021/06/22 04:57:51;;;;;;;;;;;19.00;53.90;;;;;;4951866;28;74448;-68
2021/06/22 05:00:17;;;;;;;;;;;19.00;53.40;;;;;;4950120;28;77595;-70
2021/06/22 05:02:44;;;;;;;;;;;19.00;53.60;;;;;;4949996;28;78221;-68
2021/06/22 05:05:10;;;;;;;;;;;19.00;54.10;;;;;;4951773;28;74466;-78
2021/06/22 05:07:36;;;;;;;;;;;19.00;53.60;;;;;;4949672;28;76190;-75
2021/06/22 05:10:03;;;;;;;;;;;19.00;53.60;;;;;;4949999;28;76582;-73
2021/06/22 05:12:28;;;;;;;;;;;19.00;53.10;;;;;;4949561;28;75988;-71
2021/06/22 05:14:54;;;;;;;;;;;19.00;52.70;;;;;;4949380;28;77258;-68
2021/06/22 05:17:20;;;;;;;;;;;19.00;53.00;;;;;;4949587;28;74595;-68
2021/06/22 05:19:45;;;;;;;;;;;19.00;52.90;;;;;;4949777;28;77459;-67
2021/06/22 05:22:11;;;;;;;;;;;19.00;52.80;;;;;;4950394;28;76565;-67
2021/06/22 05:24:36;;;;;;;;;;;19.00;53.10;;;;;;4949937;28;77100;-69
2021/06/22 05:27:02;;;;;;;;;;;19.00;53.90;;;;;;4949878;28;77138;-69
2021/06/22 05:29:28;;;;;;;;;;;18.90;53.60;;;;;;4951085;28;75077;-73
2021/06/22 05:31:53;;;;;;;;;;;18.90;54.10;;;;;;4951208;28;75333;-72
2021/06/22 05:34:19;;;;;;;;;;;19.00;54.10;;;;;;4949826;28;77539;-68
2021/06/22 05:36:45;;;;;;;;;;;19.00;54.20;;;;;;4950901;28;74530;-68
2021/06/22 05:39:10;;;;;;;;;;;19.10;53.90;;;;;;4950885;28;74396;-70
2021/06/22 05:41:36;;;;;;;;;;;19.10;54.40;;;;;;4949493;28;77789;-68
2021/06/22 05:44:01;;;;;;;;;;;19.10;53.30;;;;;;4951114;28;75185;-70
2021/06/22 05:46:27;;;;;;;;;;;19.10;52.90;;;;;;4950797;28;75102;-68
2021/06/22 05:48:53;;;;;;;;;;;19.10;52.60;;;;;;4951187;28;74642;-68
2021/06/22 05:51:18;;;;;;;;;;;19.10;53.20;;;;;;4949403;28;75822;-70
2021/06/22 05:53:44;;;;;;;;;;;19.10;52.90;;;;;;4950781;28;75355;-72
2021/06/22 05:56:09;;;;;;;;;;;19.10;52.30;;;;;;4949285;28;76831;-68
2021/06/22 05:58:35;;;;;;;;;;;19.20;52.60;;;;;;4950776;28;74519;-67
2021/06/22 06:01:01;;;;;;;;;;;19.20;52.70;;;;;;4950669;28;75059;-71
2021/06/22 06:03:27;;;;;;;;;;;19.20;52.90;;;;;;4948950;28;75706;-66
2021/06/22 06:05:52;;;;;;;;;;;19.20;52.50;;;;;;4950639;28;75245;-67
2021/06/22 06:08:18;;;;;;;;;;;19.20;52.20;;;;;;4950763;28;75438;-65
2021/06/22 06:10:44;;;;;;;;;;;19.20;52.00;;;;;;4949957;28;74567;-66
2021/06/22 06:13:09;;;;;;;;;;;19.20;51.90;;;;;;4950228;28;75156;-66
2021/06/22 06:15:35;;;;;;;;;;;19.20;52.10;;;;;;4949690;28;75128;-67
2021/06/22 06:18:00;;;;;;;;;;;19.30;52.40;;;;;;4949000;28;76353;-66
2021/06/22 06:20:27;;;;;;;;;;;19.40;52.80;;;;;;4948613;28;77039;-65
2021/06/22 06:22:52;;;;;;;;;;;19.40;52.00;;;;;;4948714;28;77882;-68
2021/06/22 06:25:18;;;;;;;;;;;19.40;52.10;;;;;;4950113;28;75016;-67
2021/06/22 06:30:16;;;;;;;;;;;19.40;51.30;;;;;;4947200;28;74971;-68
2021/06/22 06:32:42;;;;;;;;;;;19.50;51.60;;;;;;4948355;28;76997;-65
2021/06/22 06:35:08;;;;;;;;;;;19.50;51.80;;;;;;4950264;28;74514;-68
2021/06/22 06:37:33;;;;;;;;;;;19.60;52.20;;;;;;4950693;28;74374;-66
2021/06/22 06:39:59;;;;;;;;;;;19.70;52.00;;;;;;4948392;28;75024;-66
2021/06/22 06:42:25;;;;;;;;;;;19.70;52.10;;;;;;4950095;28;74369;-67
2021/06/22 06:44:51;;;;;;;;;;;19.80;51.80;;;;;;4948282;28;76508;-67
2021/06/22 06:47:18;;;;;;;;;;;19.80;51.20;;;;;;4950077;28;75340;-67
2021/06/22 06:49:44;;;;;;;;;;;19.90;50.90;;;;;;4948301;28;75611;-66
2021/06/22 06:52:09;;;;;;;;;;;19.90;50.70;;;;;;4951413;28;74750;-67
2021/06/22 06:54:35;;;;;;;;;;;19.90;50.90;;;;;;4950572;28;76974;-67
2021/06/22 06:57:00;;;;;;;;;;;19.90;50.90;;;;;;4950373;28;75576;-66
2021/06/22 06:59:26;;;;;;;;;;;20.00;50.70;;;;;;4950806;28;74673;-67
2021/06/22 07:01:52;;;;;;;;;;;20.00;50.60;;;;;;4950562;28;76941;-66
2021/06/22 07:04:18;;;;;;;;;;;20.00;50.20;;;;;;4950674;28;76565;-67
2021/06/22 07:06:44;;;;;;;;;;;20.00;50.40;;;;;;4951103;28;77103;-72
2021/06/22 07:09:09;;;;;;;;;;;20.10;50.40;;;;;;4951470;28;77142;-73
2021/06/22 07:11:35;;;;;;;;;;;20.20;50.60;;;;;;4952437;28;75606;-67
2021/06/22 07:14:02;;;;;;;;;;;20.20;50.20;;;;;;4950945;28;77136;-67
2021/06/22 07:16:28;;;;;;;;;;;20.20;50.50;;;;;;4951067;28;75732;-69
2021/06/22 07:18:54;;;;;;;;;;;20.30;50.20;;;;;;4950091;28;75189;-72
2021/06/22 07:21:19;;;;;;;;;;;20.40;50.30;;;;;;4948808;28;75203;-73
2021/06/22 07:23:45;;;;;;;;;;;20.40;49.70;;;;;;4949208;28;78826;-82
2021/06/22 07:26:12;;;;;;;;;;;20.40;49.80;;;;;;4950060;28;76282;-70
2021/06/22 07:28:37;;;;;;;;;;;20.40;49.80;;;;;;4949124;28;77605;-68
2021/06/22 07:31:04;;;;;;;;;;;20.40;50.00;;;;;;4952014;28;74932;-68
2021/06/22 07:33:29;;;;;;;;;;;20.50;49.90;;;;;;4952322;28;75246;-68
2021/06/22 07:35:55;;;;;;;;;;;20.60;49.70;;;;;;4950513;28;78185;-68
2021/06/22 07:38:20;;;;;;;;;;;20.70;49.80;;;;;;4952520;28;76392;-69
2021/06/22 07:40:46;;;;;;;;;;;20.80;49.40;;;;;;4950708;28;77663;-68
2021/06/22 07:43:12;;;;;;;;;;;20.90;49.50;;;;;;4950578;28;77153;-69
2021/06/22 07:45:38;;;;;;;;;;;21.00;49.50;;;;;;4950756;28;76424;-69
2021/06/22 07:48:04;;;;;;;;;;;21.10;48.80;;;;;;4950808;28;77838;-69
2021/06/22 07:50:29;;;;;;;;;;;21.10;48.10;;;;;;4952664;28;74396;-69
2021/06/22 07:52:55;;;;;;;;;;;21.20;48.10;;;;;;4952045;28;75056;-68
2021/06/22 07:55:21;;;;;;;;;;;21.20;48.10;;;;;;4950481;28;76360;-70
2021/06/22 07:57:47;;;;;;;;;;;21.20;47.70;;;;;;4950886;28;76710;-68
2021/06/22 08:00:19;;;;;;;;;;;21.20;47.60;;;;;;4952167;28;75291;-70
2021/06/22 08:02:45;;;;;;;;;;;21.30;48.10;;;;;;4951887;28;75269;-67
2021/06/22 08:05:10;;;;;;;;;;;21.30;47.60;;;;;;4951898;28;74576;-66
2021/06/22 08:07:36;;;;;;;;;;;21.40;47.10;;;;;;4950724;28;77802;-64
2021/06/22 08:10:02;;;;;;;;;;;21.50;47.10;;;;;;4950602;28;77491;-65
2021/06/22 08:12:28;;;;;;;;;;;21.50;47.20;;;;;;4952188;28;75100;-66
2021/06/22 08:14:53;;;;;;;;;;;21.70;46.80;;;;;;4951981;28;74944;-66
2021/06/22 08:17:19;;;;;;;;;;;21.70;46.00;;;;;;4950446;28;76743;-66
2021/06/22 08:19:44;;;;;;;;;;;21.70;45.80;;;;;;4950937;28;77517;-67
2021/06/22 08:22:10;;;;;;;;;;;21.80;46.10;;;;;;4950263;28;76902;-69
2021/06/22 08:24:36;;;;;;;;;;;21.80;46.30;;;;;;4951873;28;75343;-67
2021/06/22 08:27:01;;;;;;;;;;;21.90;45.80;;;;;;4950273;28;77880;-66
2021/06/22 08:29:27;;;;;;;;;;;22.00;45.50;;;;;;4950585;28;77753;-67
2021/06/22 08:31:52;;;;;;;;;;;22.10;45.80;;;;;;4950755;28;76793;-66
2021/06/22 08:34:18;;;;;;;;;;;22.20;44.80;;;;;;4950215;28;75249;-66
2021/06/22 08:36:44;;;;;;;;;;;22.30;44.60;;;;;;4950798;28;77309;-67
2021/06/22 08:39:09;;;;;;;;;;;22.40;45.00;;;;;;4950247;28;77371;-66
2021/06/22 08:41:36;;;;;;;;;;;22.40;44.50;;;;;;4950388;28;77110;-67
2021/06/22 08:44:03;;;;;;;;;;;22.50;44.60;;;;;;4950275;28;78191;-67
2021/06/22 08:46:29;;;;;;;;;;;22.60;44.80;;;;;;4950413;28;75991;-67
2021/06/22 08:48:55;;;;;;;;;;;22.70;44.50;;;;;;4950445;28;77384;-67
2021/06/22 08:51:22;;;;;;;;;;;22.90;44.10;;;;;;4950347;28;77193;-67
2021/06/22 08:53:48;;;;;;;;;;;23.00;43.70;;;;;;4950064;28;75418;-67
2021/06/22 08:56:13;;;;;;;;;;;23.10;43.70;;;;;;4949883;28;77522;-67
2021/06/22 08:58:39;;;;;;;;;;;23.20;43.80;;;;;;4949877;28;77685;-67
2021/06/22 09:01:05;;;;;;;;;;;23.40;43.40;;;;;;4950064;28;78433;-66
2021/06/22 09:03:30;;;;;;;;;;;23.40;42.90;;;;;;4951389;28;75419;-66
2021/06/22 09:06:00;;;;;;;;;;;23.50;42.10;;;;;;4951408;28;74890;-66
2021/06/22 09:08:27;;;;;;;;;;;23.40;41.50;;;;;;4949977;28;76277;-66
2021/06/22 09:11:00;;;;;;;;;;;23.50;42.80;;;;;;4949828;28;76558;-66
2021/06/22 09:13:26;;;;;;;;;;;23.70;42.00;;;;;;4948862;28;78100;-67
2021/06/22 09:15:53;;;;;;;;;;;23.70;40.40;;;;;;4951052;28;75073;-67
2021/06/22 09:18:40;;;;;;;;;;;23.50;40.60;;;;;;4950968;28;75235;-67
2021/06/22 09:21:05;;;;;;;;;;;23.40;40.80;;;;;;4951200;28;74933;-67
2021/06/22 09:23:32;;;;;;;;;;;23.40;41.70;;;;;;4950003;28;75477;-67
2021/06/22 09:25:58;;;;;;;;;;;23.50;41.50;;;;;;4949155;28;74777;-67
2021/06/22 09:28:29;;;;;;;;;;;23.60;41.00;;;;;;4949807;28;77335;-67
2021/06/22 09:30:56;;;;;;;;;;;23.70;41.30;;;;;;4950943;28;75146;-66
2021/06/22 09:33:32;;;;;;;;;;;23.90;41.50;;;;;;4951307;28;74410;-66
2021/06/22 09:36:05;;;;;;;;;;;24.10;41.40;;;;;;4949257;28;76328;-66
2021/06/22 09:38:36;;;;;;;;;;;24.30;41.00;;;;;;4951283;28;74438;-67
2021/06/22 09:41:12;;;;;;;;;;;24.40;40.40;;;;;;4950855;28;75313;-67
2021/06/22 09:43:42;;;;;;;;;;;24.60;40.20;;;;;;4951159;28;74527;-68
2021/06/22 09:46:09;;;;;;;;;;;24.70;40.20;;;;;;4949291;28;76286;-66
2021/06/22 09:48:42;;;;;;;;;;;24.90;39.20;;;;;;4950946;28;74887;-66
2021/06/22 09:51:07;;;;;;;;;;;24.90;39.20;;;;;;4949593;28;74490;-67
2021/06/22 09:53:33;;;;;;;;;;;25.00;39.60;;;;;;4950864;28;75149;-66
2021/06/22 09:56:00;;;;;;;;;;;25.20;39.90;;;;;;4949339;28;77648;-66
2021/06/22 09:58:41;;;;;;;;;;;25.40;39.80;;;;;;4949486;28;77372;-65
2021/06/22 10:01:25;;;;;;;;;;;25.40;39.20;;;;;;4949151;28;77751;-66
2021/06/22 10:03:51;;;;;;;;;;;25.60;38.70;;;;;;4951234;28;74518;-65
2021/06/22 10:06:17;;;;;;;;;;;25.70;38.40;;;;;;4950817;28;75769;-66
2021/06/22 10:08:49;;;;;;;;;;;25.70;38.10;;;;;;4951296;28;74386;-65
2021/06/22 10:11:31;;;;;;;;;;;25.70;38.50;;;;;;4950456;28;74467;-66
2021/06/22 10:13:57;;;;;;;;;;;25.70;38.20;;;;;;4948796;28;78068;-66
2021/06/22 10:16:24;;;;;;;;;;;25.90;37.60;;;;;;4948976;28;75535;-67
2021/06/22 10:18:50;;;;;;;;;;;25.90;37.90;;;;;;4949250;28;77138;-67
2021/06/22 10:21:16;;;;;;;;;;;26.00;38.30;;;;;;4948993;28;76813;-67
2021/06/22 10:23:42;;;;;;;;;;;26.20;37.60;;;;;;4948670;28;76504;-66
2021/06/22 10:26:09;;;;;;;;;;;26.30;37.50;;;;;;4950806;28;77016;-66
2021/06/22 10:28:34;;;;;;;;;;;26.40;36.80;;;;;;4953448;28;74574;-66
2021/06/22 10:31:00;;;;;;;;;;;26.50;36.40;;;;;;4953820;28;74505;-67
2021/06/22 10:33:26;;;;;;;;;;;26.50;36.90;;;;;;4953548;28;75323;-67
2021/06/22 10:35:52;;;;;;;;;;;26.80;37.40;;;;;;4953078;28;75062;-66
2021/06/22 10:38:19;;;;;;;;;;;27.00;36.20;;;;;;4951971;28;75563;-66
2021/06/22 10:40:51;;;;;;;;;;;27.10;36.00;;;;;;4952083;28;75846;-66
2021/06/22 10:43:32;;;;;;;;;;;27.20;33.90;;;;;;4951546;28;75547;-66
2021/06/22 10:46:07;;;;;;;;;;;27.00;35.50;;;;;;4952443;28;74715;-67
2021/06/22 10:48:40;;;;;;;;;;;27.10;36.00;;;;;;4953461;28;75271;-67
2021/06/22 10:51:24;;;;;;;;;;;27.40;35.30;;;;;;4953802;28;74486;-67
2021/06/22 10:53:50;;;;;;;;;;;27.50;35.20;;;;;;4951715;28;77182;-66
2021/06/22 10:56:17;;;;;;;;;;;27.80;35.00;;;;;;4951520;28;77874;-67
2021/06/22 10:59:03;;;;;;;;;;;28.00;34.00;;;;;;4951198;28;76624;-66
2021/06/22 11:01:48;;;;;;;;;;;28.20;33.90;;;;;;4953193;28;74740;-66
2021/06/22 11:04:14;;;;;;;;;;;28.40;34.00;;;;;;4952387;28;75255;-66
2021/06/22 11:06:39;;;;;;;;;;;28.60;33.10;;;;;;4952995;28;75079;-67
2021/06/22 11:09:15;;;;;;;;;;;28.60;30.00;;;;;;4951258;28;77224;-66
2021/06/22 11:11:41;;;;;;;;;;;28.40;32.70;;;;;;4952645;28;75192;-66
2021/06/22 11:14:06;;;;;;;;;;;28.40;31.40;;;;;;4950955;28;75376;-69
2021/06/22 11:16:33;;;;;;;;;;;28.30;32.60;;;;;;4952868;28;75660;-72
2021/06/22 11:19:09;;;;;;;;;;;28.40;32.20;;;;;;4951261;28;78094;-67
2021/06/22 11:21:43;;;;;;;;;;;28.20;30.80;;;;;;4938630;28;75156;-72
2021/06/22 11:24:15;;;;;;;;;;;28.00;31.60;;;;;;4933239;28;74543;-71
2021/06/22 11:26:41;;;;;;;;;;;27.90;32.10;;;;;;4932794;28;74517;-67
2021/06/22 11:29:10;;;;;;;;;;;27.90;32.50;;;;;;4933800;28;74648;-69
2021/06/22 11:31:39;;;;;;;;;;;27.90;33.20;;;;;;4930821;28;75083;-71
2021/06/22 11:34:08;;;;;;;;;;;27.70;32.20;;;;;;4931289;28;74929;-71
2021/06/22 11:36:34;;;;;;;;;;;27.40;32.80;;;;;;4929645;28;75276;-69
2021/06/22 11:39:18;;;;;;;;;;;27.40;33.60;;;;;;4930803;28;75974;-68
2021/06/22 11:42:03;;;;;;;;;;;27.30;33.30;;;;;;4929966;28;75471;-68
2021/06/22 11:44:28;;;;;;;;;;;27.20;33.50;;;;;;4931146;28;78102;-68
2021/06/22 11:46:54;;;;;;;;;;;27.10;33.50;;;;;;4933181;28;75685;-68
2021/06/22 11:49:20;;;;;;;;;;;26.80;32.90;;;;;;4931723;28;78136;-67
2021/06/22 11:51:46;;;;;;;;;;;26.50;33.90;;;;;;4933359;28;75616;-72
2021/06/22 11:54:12;;;;;;;;;;;26.30;34.10;;;;;;4931092;28;75658;-69
2021/06/22 11:56:38;;;;;;;;;;;26.20;34.30;;;;;;4931456;28;74782;-69
2021/06/22 11:59:03;;;;;;;;;;;26.00;35.00;;;;;;4931824;28;77131;-70
2021/06/22 12:01:29;;;;;;;;;;;25.90;35.20;;;;;;4933210;28;75788;-70
2021/06/22 12:03:55;;;;;;;;;;;25.80;35.50;;;;;;4932631;28;75240;-71
2021/06/22 12:06:22;;;;;;;;;;;25.60;35.00;;;;;;4931041;28;76586;-70
2021/06/22 12:08:47;;;;;;;;;;;25.40;35.90;;;;;;4932771;28;75391;-70
2021/06/22 12:11:26;;;;;;;;;;;25.30;35.70;;;;;;4931172;28;74516;-69
2021/06/22 12:13:53;;;;;;;;;;;25.00;36.30;;;;;;4931222;28;77231;-70
2021/06/22 12:16:26;;;;;;;;;;;24.80;35.80;;;;;;4930908;28;76445;-69
2021/06/22 12:18:53;;;;;;;;;;;24.50;36.30;;;;;;4930736;28;77487;-70
2021/06/22 12:21:19;;;;;;;;;;;24.30;36.80;;;;;;4931161;28;76791;-71
2021/06/22 12:23:45;;;;;;;;;;;24.10;36.70;;;;;;4931157;28;77219;-71
2021/06/22 12:26:15;;;;;;;;;;;24.00;37.30;;;;;;4941886;28;77240;-70
2021/06/22 12:28:42;;;;;;;;;;;23.90;37.30;;;;;;4951753;28;75301;-69
2021/06/22 12:31:08;;;;;;;;;;;23.90;36.80;;;;;;4950474;28;75157;-69
2021/06/22 12:33:44;;;;;;;;;;;23.80;37.10;;;;;;4952003;28;75554;-69
2021/06/22 12:36:12;;;;;;;;;;;23.60;37.30;;;;;;4950215;28;76179;-69
2021/06/22 12:38:41;;;;;;;;;;;23.50;38.00;;;;;;4950463;28;76214;-71
2021/06/22 12:41:08;;;;;;;;;;;23.50;39.20;;;;;;4951434;28;75103;-71
2021/06/22 12:43:53;;;;;;;;;;;23.40;39.50;;;;;;4951589;28;75235;-69
2021/06/22 12:46:20;;;;;;;;;;;23.30;39.60;;;;;;4950088;28;75277;-70
2021/06/22 12:48:46;;;;;;;;;;;23.30;39.60;;;;;;4949388;28;75515;-69
2021/06/22 12:51:12;;;;;;;;;;;23.30;39.70;;;;;;4951870;28;75594;-70
2021/06/22 12:53:40;;;;;;;;;;;23.30;39.80;;;;;;4949890;28;75848;-70
2021/06/22 12:56:10;;;;;;;;;;;23.30;39.80;;;;;;4951532;28;75091;-69
2021/06/22 12:58:50;;;;;;;;;;;23.30;39.90;;;;;;4950353;28;77597;-69
2021/06/22 13:01:29;;;;;;;;;;;23.40;40.00;;;;;;4946824;28;74661;-68
2021/06/22 13:03:55;;;;;;;;;;;23.50;39.90;;;;;;4931803;28;74588;-70
2021/06/22 13:06:47;;;;;;;;;;;23.60;39.60;;;;;;4927234;28;77243;-69
2021/06/22 13:09:16;;;;;;;;;;;23.70;39.70;;;;;;4929130;28;78371;-72
2021/06/22 13:12:00;;;;;;;;;;;23.70;40.00;;;;;;4927886;28;76047;-70
2021/06/22 13:14:38;;;;;;;;;;;23.80;40.00;;;;;;4929913;28;75261;-72
2021/06/22 13:17:08;;;;;;;;;;;23.90;40.00;;;;;;4931432;28;75910;-71
2021/06/22 13:19:40;;;;;;;;;;;23.80;39.70;;;;;;4931690;28;75533;-69
2021/06/22 13:22:05;;;;;;;;;;;23.80;39.90;;;;;;4929954;28;77738;-70
2021/06/22 13:24:43;;;;;;;;;;;23.90;39.70;;;;;;4930464;28;75738;-69
2021/06/22 13:27:13;;;;;;;;;;;23.90;39.90;;;;;;4930002;28;75214;-69
2021/06/22 13:29:50;;;;;;;;;;;23.90;39.90;;;;;;4929283;28;74597;-70
2021/06/22 13:32:29;;;;;;;;;;;23.90;40.10;;;;;;4929988;28;74688;-69
2021/06/22 13:34:55;;;;;;;;;;;24.00;40.10;;;;;;4942675;28;77565;-70
2021/06/22 13:37:22;;;;;;;;;;;24.00;40.00;;;;;;4929920;28;75503;-67
2021/06/22 13:39:55;;;;;;;;;;;24.20;39.90;;;;;;4930929;28;75847;-69
2021/06/22 13:42:22;;;;;;;;;;;24.20;39.70;;;;;;4930263;28;76460;-71
2021/06/22 13:44:50;;;;;;;;;;;24.20;39.90;;;;;;4930013;28;77180;-69
2021/06/22 13:47:33;;;;;;;;;;;23.90;40.00;;;;;;4931611;28;75409;-71
2021/06/22 13:50:11;;;;;;;;;;;23.80;40.10;;;;;;4929793;28;77044;-69
2021/06/22 13:52:47;;;;;;;;;;;23.70;40.40;;;;;;4931597;28;75538;-69
2021/06/22 13:55:13;;;;;;;;;;;23.70;40.50;;;;;;4931136;28;75668;-70
2021/06/22 13:57:39;;;;;;;;;;;23.70;40.40;;;;;;4931810;28;74468;-69
2021/06/22 14:00:08;;;;;;;;;;;23.60;40.20;;;;;;4929698;28;76331;-72
2021/06/22 14:02:34;;;;;;;;;;;23.40;40.70;;;;;;4929599;28;76918;-69
2021/06/22 14:04:59;;;;;;;;;;;23.40;40.70;;;;;;4929941;28;75736;-70
2021/06/22 14:07:25;;;;;;;;;;;23.40;40.60;;;;;;4929985;28;77183;-70
2021/06/22 14:09:54;;;;;;;;;;;23.40;40.50;;;;;;4929804;28;76169;-70
2021/06/22 14:12:19;;;;;;;;;;;23.50;40.80;;;;;;4929992;28;77010;-70
2021/06/22 14:14:45;;;;;;;;;;;23.60;40.50;;;;;;4931239;28;75778;-72
2021/06/22 14:17:11;;;;;;;;;;;23.70;40.00;;;;;;4929930;28;75179;-71
2021/06/22 14:19:36;;;;;;;;;;;23.70;40.10;;;;;;4929630;28;77618;-71